createdAt,value
2017-12-20T00:00:32.398Z,3.00
2017-12-20T00:02:58.770Z,3.00
2017-12-20T00:05:25.015Z,2.90
2017-12-20T00:07:52.032Z,2.90
2017-12-20T00:10:18.295Z,2.90
2017-12-20T00:12:45.342Z,2.90
2017-12-20T00:15:12.369Z,3.00
2017-12-20T00:17:38.638Z,3.00
2017-12-20T00:20:04.940Z,3.00
2017-12-20T00:22:31.996Z,3.00
2017-12-20T00:24:58.303Z,3.00
2017-12-20T00:27:24.556Z,3.00
2017-12-20T00:29:50.955Z,2.90
2017-12-20T00:32:17.265Z,2.90
2017-12-20T00:34:43.571Z,2.90
2017-12-20T00:37:09.887Z,2.90
2017-12-20T00:39:36.203Z,2.90
2017-12-20T00:42:03.433Z,2.90
2017-12-20T00:44:29.739Z,3.00
2017-12-20T00:46:55.994Z,2.90
2017-12-20T00:49:23.011Z,2.90
2017-12-20T00:51:49.259Z,2.90
2017-12-20T00:54:15.554Z,2.90
2017-12-20T00:56:41.856Z,2.90
2017-12-20T00:59:08.126Z,3.00
2017-12-20T01:01:34.379Z,3.00
2017-12-20T01:04:01.395Z,3.00
2017-12-20T01:06:27.719Z,2.90
2017-12-20T01:08:53.997Z,3.00
2017-12-20T01:11:21.041Z,3.00
2017-12-20T01:13:48.051Z,3.00
2017-12-20T01:16:14.376Z,2.90
2017-12-20T01:18:40.638Z,2.90
2017-12-20T01:21:06.904Z,2.90
2017-12-20T01:23:33.197Z,2.90
2017-12-20T01:26:00.212Z,2.90
2017-12-20T01:28:26.469Z,2.90
2017-12-20T01:30:52.796Z,2.90
2017-12-20T01:33:19.055Z,2.80
2017-12-20T01:35:46.099Z,2.70
2017-12-20T01:38:13.165Z,2.70
2017-12-20T01:40:39.428Z,2.70
2017-12-20T01:43:05.695Z,2.70
2017-12-20T01:45:32.698Z,2.70
2017-12-20T01:47:59.100Z,2.70
2017-12-20T01:50:29.814Z,2.70
2017-12-20T01:52:56.897Z,2.70
2017-12-20T01:55:23.163Z,2.60
2017-12-20T01:57:49.599Z,2.60
2017-12-20T02:00:15.882Z,2.60
2017-12-20T02:02:42.136Z,2.60
2017-12-20T02:05:09.787Z,2.60
2017-12-20T02:07:37.358Z,2.60
2017-12-20T02:10:03.678Z,2.60
2017-12-20T02:12:31.341Z,2.50
2017-12-20T02:14:57.674Z,2.60
2017-12-20T02:17:23.951Z,2.50
2017-12-20T02:19:50.996Z,2.60
2017-12-20T02:22:18.017Z,2.60
2017-12-20T02:24:44.296Z,2.60
2017-12-20T02:27:10.585Z,2.60
2017-12-20T02:29:37.710Z,2.60
2017-12-20T02:32:04.002Z,2.60
2017-12-20T02:34:30.260Z,2.60
2017-12-20T02:36:56.543Z,2.60
2017-12-20T02:39:22.825Z,2.60
2017-12-20T02:41:49.158Z,2.60
2017-12-20T02:44:15.566Z,2.60
2017-12-20T02:46:42.712Z,2.60
2017-12-20T02:49:08.990Z,2.60
2017-12-20T02:51:36.023Z,2.70
2017-12-20T02:54:02.295Z,2.60
2017-12-20T02:56:28.640Z,2.70
2017-12-20T02:58:54.984Z,2.70
2017-12-20T03:01:21.274Z,2.70
2017-12-20T03:03:48.371Z,2.70
2017-12-20T03:06:14.648Z,2.70
2017-12-20T03:08:42.288Z,2.70
2017-12-20T03:11:08.533Z,2.70
2017-12-20T03:13:35.543Z,2.70
2017-12-20T03:16:01.784Z,2.70
2017-12-20T03:18:28.099Z,2.70
2017-12-20T03:20:54.367Z,2.70
2017-12-20T03:23:21.538Z,2.70
2017-12-20T03:25:47.855Z,2.70
2017-12-20T03:28:14.131Z,2.70
2017-12-20T03:30:40.381Z,2.70
2017-12-20T03:33:06.675Z,2.70
2017-12-20T03:35:32.949Z,2.70
2017-12-20T03:37:59.209Z,2.70
2017-12-20T03:40:25.563Z,2.70
2017-12-20T03:42:51.823Z,2.70
2017-12-20T03:45:18.087Z,2.70
2017-12-20T03:47:44.396Z,2.70
2017-12-20T03:50:10.750Z,2.70
2017-12-20T03:52:38.108Z,2.60
2017-12-20T03:55:04.431Z,2.70
2017-12-20T03:57:30.698Z,2.60
2017-12-20T03:59:57.010Z,2.60
2017-12-20T04:02:23.324Z,2.60
2017-12-20T04:04:49.643Z,2.60
2017-12-20T04:07:16.644Z,2.60
2017-12-20T04:09:42.942Z,2.60
2017-12-20T04:12:09.232Z,2.60
2017-12-20T04:14:35.471Z,2.60
2017-12-20T04:17:02.496Z,2.60
2017-12-20T04:19:29.547Z,2.60
2017-12-20T04:21:56.662Z,2.70
2017-12-20T04:24:22.996Z,2.60
2017-12-20T04:26:49.252Z,2.70
2017-12-20T04:29:15.532Z,2.70
2017-12-20T04:31:41.842Z,2.70
2017-12-20T04:34:08.086Z,2.70
2017-12-20T04:36:34.389Z,2.70
2017-12-20T04:39:01.383Z,2.70
2017-12-20T04:41:27.641Z,2.70
2017-12-20T04:43:53.895Z,2.70
2017-12-20T04:46:20.169Z,2.70
2017-12-20T04:48:46.510Z,2.80
2017-12-20T04:51:12.787Z,2.70
2017-12-20T04:53:39.820Z,2.80
2017-12-20T04:56:06.825Z,2.80
2017-12-20T04:58:33.263Z,2.70
2017-12-20T05:00:59.513Z,2.80
2017-12-20T05:03:25.806Z,2.80
2017-12-20T05:05:52.083Z,2.80
2017-12-20T05:08:19.081Z,2.80
2017-12-20T05:10:45.320Z,2.80
2017-12-20T05:13:11.618Z,2.80
2017-12-20T05:15:37.954Z,2.80
2017-12-20T05:18:04.192Z,2.80
2017-12-20T05:20:30.461Z,2.70
2017-12-20T05:22:56.739Z,2.70
2017-12-20T05:25:23.015Z,2.70
2017-12-20T05:27:49.347Z,2.70
2017-12-20T05:30:16.378Z,2.70
2017-12-20T05:32:42.702Z,2.70
2017-12-20T05:35:09.046Z,2.80
2017-12-20T05:37:36.053Z,2.80
2017-12-20T05:40:02.516Z,2.80
2017-12-20T05:42:28.764Z,2.80
2017-12-20T05:44:55.787Z,2.80
2017-12-20T05:47:22.065Z,2.80
2017-12-20T05:49:48.444Z,2.80
2017-12-20T05:52:14.779Z,2.80
2017-12-20T05:54:41.036Z,2.80
2017-12-20T05:57:08.081Z,2.80
2017-12-20T05:59:35.135Z,2.80
2017-12-20T06:02:02.168Z,2.90
2017-12-20T06:04:28.477Z,2.80
2017-12-20T06:06:55.319Z,2.90
2017-12-20T06:09:21.555Z,2.90
2017-12-20T06:11:48.701Z,2.90
2017-12-20T06:14:15.012Z,2.90
2017-12-20T06:16:41.299Z,2.90
2017-12-20T06:19:08.305Z,2.90
2017-12-20T06:21:35.378Z,3.00
2017-12-20T06:24:02.372Z,2.90
2017-12-20T06:26:28.680Z,2.90
2017-12-20T06:28:54.982Z,2.90
2017-12-20T06:31:21.337Z,2.90
2017-12-20T06:33:47.609Z,2.90
2017-12-20T06:36:13.866Z,2.90
2017-12-20T06:38:40.977Z,3.00
2017-12-20T06:41:07.284Z,3.00
2017-12-20T06:43:33.651Z,3.00
2017-12-20T06:45:59.981Z,3.00
2017-12-20T06:48:27.272Z,3.00
2017-12-20T06:50:53.642Z,3.00
2017-12-20T06:53:20.724Z,3.00
2017-12-20T06:55:47.194Z,3.00
2017-12-20T06:58:13.643Z,3.00
2017-12-20T07:00:40.067Z,3.00
2017-12-20T07:03:06.291Z,3.00
2017-12-20T07:05:32.588Z,3.00
2017-12-20T07:07:58.852Z,3.00
2017-12-20T07:10:25.194Z,3.00
2017-12-20T07:12:51.516Z,3.00
2017-12-20T07:15:17.822Z,3.00
2017-12-20T07:17:51.031Z,3.10
2017-12-20T07:20:17.351Z,3.10
2017-12-20T07:22:45.905Z,3.10
2017-12-20T07:25:12.243Z,3.10
2017-12-20T07:27:38.486Z,3.10
2017-12-20T07:30:05.943Z,3.10
2017-12-20T07:32:32.965Z,3.10
2017-12-20T07:34:59.274Z,3.20
2017-12-20T07:37:25.551Z,3.20
2017-12-20T07:39:51.852Z,3.20
2017-12-20T07:42:18.167Z,3.20
2017-12-20T07:44:44.450Z,3.20
2017-12-20T07:47:10.752Z,3.20
2017-12-20T07:49:37.013Z,3.20
2017-12-20T07:52:03.259Z,3.20
2017-12-20T07:54:29.571Z,3.20
2017-12-20T07:56:55.885Z,3.20
2017-12-20T07:59:22.955Z,3.30
2017-12-20T08:01:49.347Z,3.30
2017-12-20T08:04:16.346Z,3.30
2017-12-20T08:06:42.613Z,3.30
2017-12-20T08:09:08.860Z,3.30
2017-12-20T08:11:35.875Z,3.40
2017-12-20T08:14:02.146Z,3.30
2017-12-20T08:16:28.604Z,3.40
2017-12-20T08:18:54.940Z,3.40
2017-12-20T08:21:21.175Z,3.40
2017-12-20T08:23:47.525Z,3.40
2017-12-20T08:26:13.832Z,3.40
2017-12-20T08:28:40.207Z,3.50
2017-12-20T08:31:11.704Z,3.60
2017-12-20T08:33:37.953Z,3.60
2017-12-20T08:36:04.253Z,3.60
2017-12-20T08:38:31.082Z,3.60
2017-12-20T08:40:57.339Z,3.60
2017-12-20T08:43:23.604Z,3.60
2017-12-20T08:45:49.878Z,3.60
2017-12-20T08:48:16.104Z,3.70
2017-12-20T08:50:42.389Z,3.70
2017-12-20T08:53:08.639Z,3.80
2017-12-20T08:55:35.684Z,3.90
2017-12-20T08:58:02.777Z,3.90
2017-12-20T09:00:29.078Z,3.90
2017-12-20T09:02:55.365Z,3.80
2017-12-20T09:05:25.566Z,3.90
2017-12-20T09:07:51.859Z,3.80
2017-12-20T09:10:18.145Z,3.90
2017-12-20T09:12:44.401Z,3.90
2017-12-20T09:15:11.428Z,3.90
2017-12-20T09:17:38.527Z,3.90
2017-12-20T09:20:04.747Z,3.90
2017-12-20T09:22:31.024Z,4.00
2017-12-20T09:24:57.428Z,4.00
2017-12-20T09:27:23.707Z,4.00
2017-12-20T09:29:50.741Z,4.00
2017-12-20T09:32:16.963Z,3.90
2017-12-20T09:34:43.254Z,3.90
2017-12-20T09:37:09.553Z,3.90
2017-12-20T09:39:36.531Z,3.80
2017-12-20T09:42:03.018Z,3.80
2017-12-20T09:44:30.131Z,3.80
2017-12-20T09:46:56.620Z,3.80
2017-12-20T09:49:23.605Z,3.80
2017-12-20T09:51:50.040Z,3.80
2017-12-20T09:54:16.326Z,3.80
2017-12-20T09:56:43.690Z,3.80
2017-12-20T09:59:10.166Z,3.80
2017-12-20T10:01:36.479Z,3.80
2017-12-20T10:04:02.979Z,3.90
2017-12-20T10:06:29.992Z,4.00
2017-12-20T10:08:57.042Z,4.00
2017-12-20T10:11:23.306Z,4.00
2017-12-20T10:13:49.608Z,4.00
2017-12-20T10:16:16.647Z,4.00
2017-12-20T10:18:43.013Z,4.00
2017-12-20T10:21:09.405Z,3.90
2017-12-20T10:23:35.774Z,3.90
2017-12-20T10:26:02.158Z,3.80
2017-12-20T10:28:28.542Z,3.90
2017-12-20T10:30:54.855Z,3.90
2017-12-20T10:33:21.906Z,3.90
2017-12-20T10:35:48.306Z,3.90
2017-12-20T10:38:14.666Z,4.00
2017-12-20T10:40:41.022Z,4.00
2017-12-20T10:43:07.293Z,4.00
2017-12-20T10:45:33.689Z,4.00
2017-12-20T10:48:02.241Z,4.10
2017-12-20T10:50:28.948Z,4.10
2017-12-20T10:52:55.305Z,4.20
2017-12-20T10:55:22.339Z,4.20
2017-12-20T10:57:48.694Z,4.20
2017-12-20T11:00:15.017Z,4.30
2017-12-20T11:02:44.027Z,4.30
2017-12-20T11:05:10.370Z,4.30
2017-12-20T11:07:36.797Z,4.30
2017-12-20T11:10:03.158Z,4.30
2017-12-20T11:12:29.454Z,4.30
2017-12-20T11:15:02.248Z,4.30
2017-12-20T11:17:28.622Z,4.40
2017-12-20T11:19:54.892Z,4.40
2017-12-20T11:22:21.599Z,4.50
2017-12-20T11:24:47.860Z,4.50
2017-12-20T11:27:14.191Z,4.50
2017-12-20T11:29:40.462Z,4.60
2017-12-20T11:32:06.801Z,4.60
2017-12-20T11:34:33.114Z,4.60
2017-12-20T11:37:00.409Z,4.60
2017-12-20T11:39:26.747Z,4.60
2017-12-20T11:41:53.102Z,4.60
2017-12-20T11:44:19.474Z,4.50
2017-12-20T11:46:49.615Z,4.50
2017-12-20T11:49:16.619Z,4.50
2017-12-20T11:51:42.937Z,4.50
2017-12-20T11:54:09.491Z,4.50
2017-12-20T11:56:35.803Z,4.50
2017-12-20T11:59:02.113Z,4.50
2017-12-20T12:01:28.421Z,4.50
2017-12-20T12:03:55.495Z,4.50
2017-12-20T12:06:21.971Z,4.40
2017-12-20T12:08:48.381Z,4.40
2017-12-20T12:11:14.640Z,4.40
2017-12-20T12:13:40.890Z,4.40
2017-12-20T12:16:07.964Z,4.40
2017-12-20T12:18:34.257Z,4.30
2017-12-20T12:21:01.323Z,4.30
2017-12-20T12:23:27.623Z,4.30
2017-12-20T12:25:53.924Z,4.20
2017-12-20T12:28:20.244Z,4.30
2017-12-20T12:30:46.536Z,4.20
2017-12-20T12:33:12.811Z,4.20
2017-12-20T12:35:39.118Z,4.20
2017-12-20T12:38:05.466Z,4.20
2017-12-20T12:40:31.746Z,4.20
2017-12-20T12:42:58.020Z,4.20
2017-12-20T12:45:24.304Z,4.10
2017-12-20T12:47:51.316Z,4.10
2017-12-20T12:50:17.562Z,4.10
2017-12-20T12:52:43.842Z,4.10
2017-12-20T12:55:10.204Z,4.10
2017-12-20T12:57:36.490Z,4.10
2017-12-20T13:00:02.759Z,4.10
2017-12-20T13:02:29.090Z,4.10
2017-12-20T13:04:55.392Z,4.10
2017-12-20T13:07:21.715Z,4.20
2017-12-20T13:09:47.959Z,4.10
2017-12-20T13:12:14.258Z,4.20
2017-12-20T13:14:40.565Z,4.10
2017-12-20T13:17:07.594Z,4.10
2017-12-20T13:19:33.874Z,4.10
2017-12-20T13:22:00.206Z,4.10
2017-12-20T13:24:26.462Z,4.10
2017-12-20T13:26:52.740Z,4.20
2017-12-20T13:29:19.019Z,4.10
2017-12-20T13:31:45.270Z,4.10
2017-12-20T13:34:11.541Z,4.10
2017-12-20T13:36:37.808Z,4.10
2017-12-20T13:39:09.748Z,4.10
2017-12-20T13:41:38.572Z,4.10
2017-12-20T13:44:05.062Z,4.10
2017-12-20T13:46:31.706Z,4.00
2017-12-20T13:48:58.087Z,4.00
2017-12-20T13:51:24.484Z,4.00
2017-12-20T13:53:50.800Z,4.00
2017-12-20T13:56:17.119Z,4.00
2017-12-20T13:58:43.375Z,4.00
2017-12-20T14:01:10.352Z,4.00
2017-12-20T14:03:36.614Z,4.00
2017-12-20T14:06:03.640Z,4.00
2017-12-20T14:08:30.059Z,4.00
2017-12-20T14:11:03.421Z,4.00
2017-12-20T14:13:30.491Z,4.00
2017-12-20T14:15:56.898Z,3.90
2017-12-20T14:18:23.136Z,4.00
2017-12-20T14:20:50.354Z,4.00
2017-12-20T14:23:16.645Z,4.00
2017-12-20T14:25:42.953Z,4.00
2017-12-20T14:28:09.294Z,4.00
2017-12-20T14:30:35.580Z,4.00
2017-12-20T14:33:01.863Z,4.00
2017-12-20T14:35:28.869Z,4.00
2017-12-20T14:37:55.280Z,4.00
2017-12-20T14:40:21.638Z,4.00
2017-12-20T14:42:48.722Z,3.90
2017-12-20T14:45:15.075Z,3.90
2017-12-20T14:47:41.447Z,3.90
2017-12-20T14:50:08.524Z,3.90
2017-12-20T14:52:36.090Z,3.90
2017-12-20T14:55:02.478Z,3.90
2017-12-20T14:57:36.557Z,3.90
2017-12-20T15:00:03.100Z,3.80
2017-12-20T15:02:29.428Z,3.80
2017-12-20T15:04:55.665Z,3.80
2017-12-20T15:07:21.960Z,3.80
2017-12-20T15:09:48.989Z,3.80
2017-12-20T15:12:16.970Z,3.80
2017-12-20T15:14:44.196Z,3.80
2017-12-20T15:17:10.711Z,3.80
2017-12-20T15:19:37.282Z,3.70
2017-12-20T15:22:03.616Z,3.70
2017-12-20T15:24:31.558Z,3.70
2017-12-20T15:27:04.506Z,3.70
2017-12-20T15:29:33.401Z,3.70
2017-12-20T15:32:00.472Z,3.70
2017-12-20T15:34:28.292Z,3.80
2017-12-20T15:36:55.466Z,3.80
2017-12-20T15:39:23.878Z,3.80
2017-12-20T15:41:52.813Z,3.80
2017-12-20T15:44:20.572Z,3.80
2017-12-20T15:46:47.644Z,3.80
2017-12-20T15:49:13.923Z,3.80
2017-12-20T15:51:40.251Z,3.80
2017-12-20T15:54:06.554Z,3.80
2017-12-20T15:56:34.750Z,3.80
2017-12-20T15:59:01.164Z,3.80
2017-12-20T16:01:27.418Z,3.80
2017-12-20T16:03:53.929Z,3.80
2017-12-20T16:06:20.265Z,3.80
2017-12-20T16:08:46.586Z,3.80
2017-12-20T16:11:12.913Z,3.80
2017-12-20T16:13:39.170Z,3.80
2017-12-20T16:16:06.203Z,3.80
2017-12-20T16:18:32.546Z,3.80
2017-12-20T16:20:58.878Z,3.80
2017-12-20T16:23:25.154Z,3.80
2017-12-20T16:25:51.476Z,3.80
2017-12-20T16:28:17.773Z,3.80
2017-12-20T16:30:44.778Z,3.80
2017-12-20T16:33:11.047Z,3.80
2017-12-20T16:35:37.388Z,3.80
2017-12-20T16:38:04.893Z,3.80
2017-12-20T16:40:31.295Z,3.90
2017-12-20T16:42:57.734Z,3.90
2017-12-20T16:45:24.057Z,3.80
2017-12-20T16:47:50.361Z,3.90
2017-12-20T16:50:17.410Z,3.90
2017-12-20T16:52:43.760Z,3.90
2017-12-20T16:55:10.043Z,3.90
2017-12-20T16:57:36.401Z,3.90
2017-12-20T17:00:03.539Z,3.90
2017-12-20T17:02:29.948Z,3.90
2017-12-20T17:04:56.284Z,4.00
2017-12-20T17:07:22.630Z,4.00
2017-12-20T17:09:49.999Z,4.00
2017-12-20T17:12:16.352Z,4.00
2017-12-20T17:14:42.863Z,4.00
2017-12-20T17:17:10.007Z,4.00
2017-12-20T17:19:37.085Z,4.00
2017-12-20T17:22:03.615Z,4.10
2017-12-20T17:24:29.876Z,4.10
2017-12-20T17:26:56.175Z,4.10
2017-12-20T17:29:22.498Z,4.10
2017-12-20T17:31:49.522Z,4.10
2017-12-20T17:34:16.622Z,4.10
2017-12-20T17:36:43.000Z,4.10
2017-12-20T17:39:09.330Z,4.10
2017-12-20T17:41:36.530Z,4.10
2017-12-20T17:44:04.065Z,4.10
2017-12-20T17:46:30.317Z,4.20
2017-12-20T17:48:58.211Z,4.20
2017-12-20T17:51:24.462Z,4.10
2017-12-20T17:53:50.804Z,4.20
2017-12-20T17:56:18.330Z,4.20
2017-12-20T17:58:44.760Z,4.20
2017-12-20T18:01:11.236Z,4.20
2017-12-20T18:03:38.542Z,4.20
2017-12-20T18:06:04.873Z,4.20
2017-12-20T18:08:34.740Z,4.20
2017-12-20T18:11:02.140Z,4.20
2017-12-20T18:13:28.512Z,4.20
2017-12-20T18:15:55.686Z,4.20
2017-12-20T18:18:22.080Z,4.20
2017-12-20T18:20:51.032Z,4.20
2017-12-20T18:23:17.360Z,4.20
2017-12-20T18:25:45.277Z,4.20
2017-12-20T18:28:12.940Z,4.20
2017-12-20T18:30:39.274Z,4.30
2017-12-20T18:33:05.858Z,4.20
2017-12-20T18:35:37.464Z,4.30
2017-12-20T18:38:07.263Z,4.30
2017-12-20T18:41:09.921Z,4.30
2017-12-20T18:43:37.267Z,4.30
2017-12-20T18:46:03.523Z,4.30
2017-12-20T18:48:29.870Z,4.30
2017-12-20T18:50:57.803Z,4.30
2017-12-20T18:53:25.205Z,4.30
2017-12-20T18:55:51.594Z,4.30
2017-12-20T18:58:18.639Z,4.30
2017-12-20T19:00:45.012Z,4.30
2017-12-20T19:03:11.677Z,4.30
2017-12-20T19:05:37.977Z,4.40
2017-12-20T19:08:04.978Z,4.30
2017-12-20T19:10:31.411Z,4.30
2017-12-20T19:12:57.691Z,4.40
2017-12-20T19:15:23.966Z,4.40
2017-12-20T19:17:50.276Z,4.50
2017-12-20T19:20:16.585Z,4.50
2017-12-20T19:22:45.011Z,4.40
2017-12-20T19:25:11.386Z,4.40
2017-12-20T19:27:37.758Z,4.40
2017-12-20T19:30:04.583Z,4.40
2017-12-20T19:32:31.151Z,4.40
2017-12-20T19:34:57.435Z,4.40
2017-12-20T19:37:23.702Z,4.40
2017-12-20T19:39:50.142Z,4.40
2017-12-20T19:42:16.527Z,4.40
2017-12-20T19:44:43.018Z,4.40
2017-12-20T19:47:10.253Z,4.40
2017-12-20T19:49:36.709Z,4.40
2017-12-20T19:52:04.370Z,4.40
2017-12-20T19:54:31.480Z,4.40
2017-12-20T19:56:57.871Z,4.50
2017-12-20T19:59:24.476Z,4.50
2017-12-20T20:01:50.858Z,4.50
2017-12-20T20:04:17.252Z,4.50
2017-12-20T20:06:43.741Z,4.50
2017-12-20T20:09:15.591Z,4.50
2017-12-20T20:11:41.942Z,4.50
2017-12-20T20:14:14.607Z,4.50
2017-12-20T20:16:41.135Z,4.50
2017-12-20T20:19:07.461Z,4.50
2017-12-20T20:21:33.829Z,4.50
2017-12-20T20:24:01.025Z,4.50
2017-12-20T20:26:31.260Z,4.50
2017-12-20T20:29:04.675Z,4.50
2017-12-20T20:31:31.091Z,4.50
2017-12-20T20:33:57.910Z,4.40
2017-12-20T20:36:24.981Z,4.50
2017-12-20T20:38:51.555Z,4.50
2017-12-20T20:41:17.789Z,4.40
2017-12-20T20:43:44.277Z,4.40
2017-12-20T20:46:12.747Z,4.40
2017-12-20T20:48:40.800Z,4.50
2017-12-20T20:51:07.733Z,4.40
2017-12-20T20:53:34.729Z,4.40
2017-12-20T20:56:09.460Z,4.40
2017-12-20T20:58:36.300Z,4.40
2017-12-20T21:01:02.634Z,4.40
2017-12-20T21:03:28.856Z,4.40
2017-12-20T21:05:55.170Z,4.40
2017-12-20T21:08:21.742Z,4.40
2017-12-20T21:10:48.439Z,4.40
2017-12-20T21:13:14.817Z,4.50
2017-12-20T21:15:42.429Z,4.50
2017-12-20T21:18:09.578Z,4.50
2017-12-20T21:20:35.799Z,4.50
2017-12-20T21:23:05.968Z,4.50
2017-12-20T21:25:32.246Z,4.50
2017-12-20T21:27:59.290Z,4.50
2017-12-20T21:30:25.574Z,4.50
2017-12-20T21:32:56.605Z,4.50
2017-12-20T21:35:23.110Z,4.50
2017-12-20T21:37:49.372Z,4.50
2017-12-20T21:40:15.610Z,4.50
2017-12-20T21:42:41.906Z,4.50
2017-12-20T21:45:08.249Z,4.50
2017-12-20T21:47:35.356Z,4.50
2017-12-20T21:50:02.460Z,4.50
2017-12-20T21:52:28.705Z,4.50
2017-12-20T21:54:54.954Z,4.50
2017-12-20T21:57:22.593Z,4.50
2017-12-20T21:59:48.865Z,4.50
2017-12-20T22:02:15.885Z,4.50
2017-12-20T22:04:43.135Z,4.50
2017-12-20T22:07:09.386Z,4.50
2017-12-20T22:09:36.387Z,4.50
2017-12-20T22:12:04.487Z,4.50
2017-12-20T22:14:35.218Z,4.50
2017-12-20T22:17:01.670Z,4.50
2017-12-20T22:19:28.693Z,4.60
2017-12-20T22:21:55.713Z,4.60
2017-12-20T22:24:21.966Z,4.60
2017-12-20T22:26:48.214Z,4.60
2017-12-20T22:29:15.218Z,4.60
2017-12-20T22:31:41.482Z,4.60
2017-12-20T22:34:08.883Z,4.60
2017-12-20T22:36:35.166Z,4.70
2017-12-20T22:39:02.192Z,4.60
2017-12-20T22:41:28.439Z,4.60
2017-12-20T22:43:55.432Z,4.70
2017-12-20T22:46:21.713Z,4.70
2017-12-20T22:48:48.716Z,4.80
2017-12-20T22:51:14.952Z,4.70
2017-12-20T22:53:41.191Z,4.80
2017-12-20T22:56:07.435Z,4.70
2017-12-20T22:58:33.677Z,4.70
2017-12-20T23:01:00.729Z,4.70
2017-12-20T23:03:28.037Z,4.70
2017-12-20T23:05:55.557Z,4.70
2017-12-20T23:08:21.819Z,4.70
2017-12-20T23:10:49.562Z,4.70
2017-12-20T23:13:15.816Z,4.70
2017-12-20T23:15:42.078Z,4.70
2017-12-20T23:18:09.068Z,4.70
2017-12-20T23:20:35.350Z,4.70
2017-12-20T23:23:02.422Z,4.70
2017-12-20T23:25:28.803Z,4.70
2017-12-20T23:27:55.820Z,4.80
2017-12-20T23:30:22.158Z,4.80
2017-12-20T23:32:50.455Z,4.80
2017-12-20T23:35:20.271Z,4.80
2017-12-20T23:37:46.504Z,4.80
2017-12-20T23:40:12.770Z,4.80
2017-12-20T23:42:39.768Z,4.80
2017-12-20T23:45:06.032Z,4.80
2017-12-20T23:47:33.164Z,4.80
2017-12-20T23:49:59.460Z,4.80
2017-12-20T23:52:25.697Z,4.80
2017-12-20T23:54:52.041Z,4.80
2017-12-20T23:57:18.289Z,4.70
2017-12-20T23:59:45.330Z,4.80
